Time;durP1;ratioP1;P1;durP2;ratioP2;P2;SDS_P1;SDS_P2;PMS_P1;PMS_P2;Temp;Humidity;BMP_temperature;BMP_pressure;BME280_temperature;BME280_humidity;BME280_pressure;Samples;Min_cycle;Max_cycle;Signal;HPM_P1;HPM_P2
2021/12/30 00:04:23;;;;;;;22.90;7.50;;;;;;;20.01;46.27;96284.00;12580193;23;20367;-82
2021/12/30 00:09:43;;;;;;;13.63;5.95;;;;;;;20.00;46.17;96287.06;12581897;23;20102;-81
2021/12/30 00:15:04;;;;;;;12.10;4.65;;;;;;;19.97;45.96;96274.22;12581353;23;20085;-82
2021/12/30 00:20:24;;;;;;;11.90;5.00;;;;;;;19.95;45.92;96285.34;12581295;23;20015;-82
2021/12/30 00:25:44;;;;;;;10.93;4.75;;;;;;;19.94;45.87;96281.09;12577113;23;20090;-82
2021/12/30 00:31:04;;;;;;;10.70;4.80;;;;;;;19.93;45.69;96282.19;12579746;23;20029;-81
2021/12/30 00:36:24;;;;;;;10.25;4.25;;;;;;;19.91;45.78;96287.94;12582334;23;20107;-82
2021/12/30 00:41:44;;;;;;;7.93;4.30;;;;;;;19.89;45.53;96279.38;12600608;23;20041;-82
2021/12/30 00:47:04;;;;;;;9.10;4.25;;;;;;;19.90;45.66;96294.50;12600518;23;20380;-82
2021/12/30 00:52:25;;;;;;;9.35;4.18;;;;;;;19.88;45.60;96285.94;12561375;23;20042;-81
2021/12/30 00:57:45;;;;;;;9.82;3.42;;;;;;;19.87;45.40;96294.38;12600413;23;20041;-82
2021/12/30 01:03:05;;;;;;;9.95;3.83;;;;;;;19.85;45.53;96292.00;12581076;23;20034;-82
2021/12/30 01:08:25;;;;;;;7.47;3.95;;;;;;;19.84;45.32;96292.38;12578506;23;20038;-81
2021/12/30 01:13:46;;;;;;;9.43;3.65;;;;;;;19.82;45.43;96286.50;12579863;23;20101;-82
2021/12/30 01:24:42;;;;;;;7.72;3.42;;;;;;;19.79;45.32;96287.94;12579052;23;20085;-81
2021/12/30 01:30:13;;;;;;;6.82;3.38;;;;;;;19.78;45.25;96308.00;12579613;23;20090;-81
2021/12/30 01:35:33;;;;;;;6.75;3.25;;;;;;;19.77;45.17;96306.41;12577538;23;20358;-81
2021/12/30 01:40:54;;;;;;;7.32;3.47;;;;;;;19.75;45.17;96303.28;12559831;23;20019;-82
2021/12/30 01:46:15;;;;;;;7.07;3.45;;;;;;;19.75;45.19;96309.44;12577052;23;20051;-82
2021/12/30 01:51:35;;;;;;;5.68;3.10;;;;;;;19.72;45.06;96318.25;12580361;23;20043;-82
2021/12/30 01:56:59;;;;;;;5.57;2.90;;;;;;;19.72;45.08;96322.88;12577453;23;20046;-82
2021/12/30 02:02:19;;;;;;;6.55;3.15;;;;;;;19.71;45.00;96321.25;12582806;23;20090;-82
2021/12/30 02:07:39;;;;;;;5.85;3.05;;;;;;;19.68;44.97;96314.63;12583791;23;20343;-82
2021/12/30 02:12:59;;;;;;;8.25;3.00;;;;;;;19.67;44.97;96306.84;12599932;23;20046;-81
2021/12/30 02:18:19;;;;;;;6.43;3.13;;;;;;;19.66;44.97;96318.75;12584478;23;20089;-82
2021/12/30 02:23:39;;;;;;;6.15;3.00;;;;;;;19.65;45.10;96314.50;12583134;23;20094;-81
2021/12/30 02:28:58;;;;;;;7.07;2.67;;;;;;;19.64;44.98;96321.00;12600671;23;20059;-81
2021/12/30 02:34:19;;;;;;;5.28;2.58;;;;;;;19.62;44.86;96323.25;12580962;23;20407;-81
2021/12/30 02:39:40;;;;;;;5.70;2.90;;;;;;;19.61;44.79;96340.63;12579540;23;20059;-82
2021/12/30 02:45:00;;;;;;;5.57;2.80;;;;;;;19.60;44.94;96352.53;12606420;23;20321;-82
2021/12/30 02:50:20;;;;;;;5.78;2.88;;;;;;;19.59;44.90;96348.25;12601065;23;20447;-82
2021/12/30 02:55:41;;;;;;;4.25;2.72;;;;;;;19.57;44.84;96337.78;12601448;23;20011;-82
2021/12/30 03:01:04;;;;;;;6.47;2.80;;;;;;;19.55;44.98;96334.63;12581571;23;20018;-82
2021/12/30 03:06:24;;;;;;;13.45;2.60;;;;;;;19.55;44.75;96345.44;12601134;23;20018;-82
2021/12/30 03:11:44;;;;;;;4.60;2.53;;;;;;;19.52;44.89;96352.31;12582596;23;20098;-82
2021/12/30 03:17:04;;;;;;;3.58;2.47;;;;;;;19.51;44.77;96352.63;12582196;23;20098;-82
2021/12/30 03:22:24;;;;;;;5.35;2.50;;;;;;;19.51;44.88;96347.25;12581165;23;20014;-82
2021/12/30 03:27:44;;;;;;;3.50;2.47;;;;;;;19.49;45.08;96344.09;12580008;23;20166;-82
2021/12/30 03:33:03;;;;;;;6.95;2.47;;;;;;;19.47;44.76;96362.53;12562923;23;20019;-81
2021/12/30 03:38:23;;;;;;;4.53;2.42;;;;;;;19.45;44.93;96384.47;12562498;23;20503;-82
2021/12/30 03:43:43;;;;;;;3.55;2.10;;;;;;;19.46;44.98;96393.38;12602696;23;20049;-82
2021/12/30 03:49:05;;;;;;;4.13;2.30;;;;;;;19.43;44.92;96394.03;12572521;23;20086;-82
2021/12/30 03:54:24;;;;;;;4.20;2.20;;;;;;;19.43;44.97;96402.16;12582160;23;20023;-82
2021/12/30 03:59:44;;;;;;;3.88;2.05;;;;;;;19.42;44.78;96411.38;12579862;23;20042;-82
2021/12/30 04:05:05;;;;;;;3.25;2.05;;;;;;;19.39;44.71;96410.13;12578356;23;20071;-82
2021/12/30 04:10:25;;;;;;;3.60;2.10;;;;;;;19.38;44.83;96416.63;12583097;23;20086;-81
2021/12/30 04:15:44;;;;;;;5.65;2.40;;;;;;;19.37;44.84;96423.16;12582474;23;20019;-81
2021/12/30 04:21:04;;;;;;;3.90;2.20;;;;;;;19.36;44.77;96432.38;12577693;23;20025;-81
2021/12/30 04:26:23;;;;;;;3.30;1.75;;;;;;;19.35;44.89;96449.72;12581535;23;20519;-82
2021/12/30 04:31:44;;;;;;;4.30;2.25;;;;;;;19.34;44.99;96461.63;12602178;23;20314;-81
2021/12/30 04:37:03;;;;;;;3.10;1.98;;;;;;;19.33;44.95;96479.75;12576491;23;20025;-81
2021/12/30 04:42:23;;;;;;;5.95;2.13;;;;;;;19.31;44.97;96473.13;12581225;23;20237;-81
2021/12/30 04:47:42;;;;;;;4.45;1.90;;;;;;;19.31;44.82;96481.22;12579308;23;20019;-82
2021/12/30 04:53:02;;;;;;;3.20;2.00;;;;;;;19.29;44.80;96507.78;12602640;23;20026;-82
2021/12/30 04:58:22;;;;;;;3.63;1.80;;;;;;;19.28;44.86;96498.84;12602655;23;20022;-82
2021/12/30 05:03:41;;;;;;;3.58;2.10;;;;;;;19.26;44.88;96513.81;12602487;23;20042;-82
2021/12/30 05:09:00;;;;;;;2.75;2.00;;;;;;;19.26;44.78;96513.81;12577752;23;20073;-82
2021/12/30 05:14:20;;;;;;;2.80;1.85;;;;;;;19.25;44.69;96506.81;12582047;23;20031;-82
2021/12/30 05:19:39;;;;;;;2.38;1.70;;;;;;;19.23;44.90;96519.88;12602182;23;20045;-82
2021/12/30 05:25:02;;;;;;;2.47;1.67;;;;;;;19.23;45.01;96530.66;12578994;23;20019;-82
2021/12/30 05:30:23;;;;;;;2.25;1.67;;;;;;;19.22;45.09;96534.50;12580718;23;20042;-81
2021/12/30 05:35:42;;;;;;;2.50;1.52;;;;;;;19.22;45.05;96558.81;12583550;23;20389;-81
2021/12/30 05:41:02;;;;;;;2.40;1.60;;;;;;;19.20;45.10;96542.91;12576172;23;20091;-81
2021/12/30 05:46:21;;;;;;;3.60;2.08;;;;;;;19.19;44.97;96552.16;12577895;23;20089;-82
2021/12/30 05:51:41;;;;;;;2.33;1.50;;;;;;;19.20;45.35;96569.13;12581105;23;20351;-82
2021/12/30 05:57:01;;;;;;;3.25;1.95;;;;;;;19.17;45.62;96579.47;12561120;23;20277;-82
2021/12/30 06:02:21;;;;;;;2.88;1.80;;;;;;;19.19;45.93;96597.25;12605859;23;20019;-82
2021/12/30 06:07:41;;;;;;;3.72;1.80;;;;;;;19.18;45.92;96609.97;12583330;23;20018;-82
2021/12/30 06:13:00;;;;;;;2.33;1.52;;;;;;;19.17;46.14;96624.59;12578930;23;20089;-82
2021/12/30 06:18:20;;;;;;;2.05;1.42;;;;;;;19.15;46.02;96633.03;12575834;23;20018;-81
2021/12/30 06:23:39;;;;;;;2.50;1.90;;;;;;;19.15;46.07;96653.81;12598404;23;20019;-82
2021/12/30 06:28:59;;;;;;;2.47;1.40;;;;;;;19.12;46.14;96655.25;12580355;23;20155;-81
2021/12/30 06:34:18;;;;;;;2.28;1.42;;;;;;;19.13;46.00;96683.03;12561145;23;20126;-82
2021/12/30 06:39:38;;;;;;;1.75;1.20;;;;;;;19.11;45.95;96679.88;12577854;23;20086;-82
2021/12/30 06:44:58;;;;;;;1.85;1.40;;;;;;;19.10;46.01;96681.78;12579204;23;20103;-83
2021/12/30 06:50:20;;;;;;;3.40;1.48;;;;;;;19.09;46.12;96682.94;12578330;23;20083;-82
2021/12/30 06:55:42;;;;;;;1.83;1.45;;;;;;;19.09;45.95;96680.22;12556782;23;20104;-82
2021/12/30 07:01:02;;;;;;;2.55;1.50;;;;;;;19.09;46.21;96665.91;12579353;23;20093;-82
2021/12/30 07:06:22;;;;;;;2.97;1.70;;;;;;;19.09;46.02;96687.50;12600163;23;20098;-82
2021/12/30 07:11:42;;;;;;;2.55;1.60;;;;;;;19.06;46.17;96691.66;12581553;23;20038;-82
2021/12/30 07:17:02;;;;;;;3.65;1.50;;;;;;;19.05;46.02;96687.41;12580263;23;20019;-82
2021/12/30 07:22:21;;;;;;;2.05;1.38;;;;;;;19.04;46.46;96704.69;12582912;23;20106;-82
2021/12/30 07:27:41;;;;;;;3.17;1.55;;;;;;;19.02;46.00;96709.63;12578752;23;20394;-82
2021/12/30 07:33:01;;;;;;;2.60;1.35;;;;;;;19.03;46.22;96715.81;12601958;23;20061;-82
2021/12/30 07:38:23;;;;;;;2.35;1.30;;;;;;;19.02;45.98;96725.03;12593504;23;20039;-84
2021/12/30 07:43:42;;;;;;;1.60;1.27;;;;;;;18.99;46.27;96723.75;12596338;23;20351;-82
2021/12/30 07:49:02;;;;;;;3.95;1.20;;;;;;;18.99;46.66;96734.56;12574892;23;20053;-83
2021/12/30 07:54:22;;;;;;;2.72;1.20;;;;;;;18.98;46.82;96732.19;12558545;23;20031;-82
2021/12/30 07:59:41;;;;;;;1.58;1.00;;;;;;;18.98;47.05;96734.91;12555095;23;20101;-83
2021/12/30 08:05:00;;;;;;;1.88;1.10;;;;;;;18.98;47.38;96751.09;12578338;23;20090;-82
2021/12/30 08:10:22;;;;;;;3.20;1.00;;;;;;;18.97;47.31;96761.09;12580934;23;20023;-82
2021/12/30 08:15:43;;;;;;;1.38;1.17;;;;;;;18.95;47.29;96763.31;12581926;23;20044;-83
2021/12/30 08:21:03;;;;;;;1.90;1.13;;;;;;;18.94;47.01;96757.13;12595808;23;20015;-82
2021/12/30 08:26:23;;;;;;;2.35;1.00;;;;;;;18.93;47.13;96765.53;12596290;23;20384;-82
2021/12/30 08:31:43;;;;;;;2.47;0.90;;;;;;;18.93;46.96;96760.13;12575635;23;20030;-81
2021/12/30 08:37:02;;;;;;;2.13;0.90;;;;;;;18.91;46.78;96776.66;12597399;23;20097;-82
2021/12/30 08:42:25;;;;;;;1.70;1.05;;;;;;;18.91;46.83;96792.06;12577416;23;20022;-82
2021/12/30 08:47:45;;;;;;;4.28;1.02;;;;;;;18.91;46.89;96783.97;12597513;23;20015;-82
2021/12/30 08:53:05;;;;;;;1.42;1.00;;;;;;;18.89;46.70;96786.97;12578284;23;20388;-81
2021/12/30 08:58:25;;;;;;;1.52;0.80;;;;;;;18.88;46.87;96790.81;12580908;23;20035;-82
2021/12/30 09:03:44;;;;;;;1.10;1.00;;;;;;;18.88;46.66;96800.81;12579697;23;20015;-82
2021/12/30 09:09:03;;;;;;;1.77;1.17;;;;;;;18.87;46.85;96805.41;12610763;23;20365;-83
2021/12/30 09:14:23;;;;;;;2.67;1.10;;;;;;;18.86;46.64;96800.34;12581845;23;20026;-82
2021/12/30 09:19:43;;;;;;;1.10;1.00;;;;;;;18.86;46.71;96800.34;12599818;23;20019;-82
2021/12/30 09:25:07;;;;;;;2.05;1.00;;;;;;;18.84;46.65;96802.56;12578380;23;20408;-82
2021/12/30 09:30:27;;;;;;;2.20;1.17;;;;;;;18.84;46.47;96802.56;12558790;23;20144;-83
2021/12/30 09:35:49;;;;;;;2.40;1.08;;;;;;;18.83;46.51;96795.56;12578664;23;20399;-83
2021/12/30 09:41:09;;;;;;;1.67;1.00;;;;;;;18.83;46.71;96787.47;12574821;23;20033;-82
2021/12/30 09:46:29;;;;;;;3.05;1.10;;;;;;;18.83;47.18;96793.66;12579160;23;20499;-83
2021/12/30 09:51:49;;;;;;;1.45;1.00;;;;;;;18.81;46.98;96792.41;12598188;23;20415;-83
2021/12/30 09:57:08;;;;;;;2.47;1.10;;;;;;;18.79;47.17;96811.56;12579026;23;20433;-82
2021/12/30 10:02:28;;;;;;;3.10;1.10;;;;;;;18.80;47.27;96804.28;12599400;23;20041;-82
2021/12/30 10:07:48;;;;;;;2.45;1.08;;;;;;;18.79;47.39;96798.06;12578450;23;20019;-83
2021/12/30 10:13:34;;;;;;;1.60;1.15;;;;;;;18.77;47.56;96779.50;12561055;23;20077;-82
2021/12/30 10:19:02;;;;;;;2.00;1.02;;;;;;;18.76;47.24;96769.81;12580590;23;20123;-83
2021/12/30 10:24:21;;;;;;;4.47;0.95;;;;;;;18.75;47.10;96787.13;12585246;23;20098;-82
2021/12/30 10:29:42;;;;;;;1.98;1.13;;;;;;;18.75;47.01;96791.72;12586137;23;20094;-83
2021/12/30 10:35:06;;;;;;;1.90;1.17;;;;;;;18.74;47.36;96788.25;12609449;23;20039;-82
2021/12/30 10:40:29;;;;;;;2.35;1.15;;;;;;;18.75;47.12;96791.72;12582588;23;20038;-83
2021/12/30 10:46:06;;;;;;;1.27;1.00;;;;;;;18.74;47.11;96800.97;12585189;23;20097;-82
2021/12/30 10:51:26;;;;;;;1.38;1.10;;;;;;;18.71;47.19;96796.97;12562216;23;20023;-83
2021/12/30 10:56:54;;;;;;;1.55;1.02;;;;;;;18.72;47.52;96798.56;12583626;23;20047;-82
2021/12/30 11:02:23;;;;;;;1.40;1.00;;;;;;;18.71;47.28;96799.66;12584374;23;20463;-82
2021/12/30 11:07:51;;;;;;;1.60;1.00;;;;;;;18.70;47.59;96789.19;12604858;23;20015;-82
2021/12/30 11:13:13;;;;;;;1.10;0.90;;;;;;;18.70;47.75;96787.31;12584537;23;20049;-82
2021/12/30 11:18:42;;;;;;;1.38;0.73;;;;;;;18.67;47.83;96779.81;12580890;23;20074;-82
2021/12/30 11:24:03;;;;;;;2.35;0.93;;;;;;;18.67;47.71;96762.84;12580204;23;20025;-81
2021/12/30 11:29:24;;;;;;;1.70;1.00;;;;;;;18.67;47.77;96752.06;12601761;23;20027;-83
2021/12/30 11:34:48;;;;;;;1.48;1.20;;;;;;;18.67;47.71;96760.16;12586644;23;20027;-82
2021/12/30 11:40:11;;;;;;;1.85;1.08;;;;;;;18.64;47.49;96744.59;12599490;23;20412;-82
2021/12/30 11:45:32;;;;;;;2.55;1.10;;;;;;;18.63;47.58;96768.09;12574719;23;20014;-82
2021/12/30 11:51:06;;;;;;;10.80;3.03;;;;;;;18.64;47.08;96768.88;12602380;23;20026;-82
2021/12/30 11:56:26;;;;;;;6.85;3.55;;;;;;;18.65;49.46;96755.06;12562474;23;20015;-82
2021/12/30 12:01:46;;;;;;;5.43;4.40;;;;;;;18.67;50.38;96758.25;12586947;23;20014;-82
2021/12/30 12:07:05;;;;;;;5.60;3.70;;;;;;;18.70;50.79;96748.72;12584402;23;20092;-82
2021/12/30 12:12:35;;;;;;;4.50;2.40;;;;;;;18.69;48.90;96761.41;12590259;23;20055;-82
2021/12/30 12:18:10;;;;;;;4.45;2.17;;;;;;;18.69;48.52;96761.41;12606660;23;20066;-82
2021/12/30 12:23:35;;;;;;;4.50;3.08;;;;;;;18.69;48.08;96749.84;12589257;23;20019;-82
2021/12/30 12:29:26;;;;;;;6.72;5.72;;;;;;;18.70;48.83;96765.72;12583027;23;20029;-82
2021/12/30 12:34:50;;;;;;;5.00;3.28;;;;;;;18.67;48.51;96752.06;12602501;23;20023;-83
2021/12/30 12:40:32;;;;;;;326.35;104.53;;;;;;;18.66;49.94;96748.56;12565289;23;20116;-83
2021/12/30 12:45:56;;;;;;;277.48;87.07;;;;;;;18.73;50.91;96751.56;12555457;23;20057;-83
2021/12/30 12:51:24;;;;;;;168.75;54.78;;;;;;;18.81;51.87;96749.22;12577581;23;20026;-82
2021/12/30 12:56:44;;;;;;;182.30;55.70;;;;;;;18.85;53.00;96742.84;12577506;23;20053;-82
2021/12/30 13:02:05;;;;;;;148.25;48.63;;;;;;;18.92;53.93;96747.78;12555859;23;20019;-83
2021/12/30 13:07:26;;;;;;;143.75;46.70;;;;;;;18.97;53.17;96736.78;12555303;23;20027;-82
2021/12/30 13:12:47;;;;;;;127.47;41.90;;;;;;;19.00;53.74;96738.84;12564655;23;20079;-82
2021/12/30 13:18:16;;;;;;;80.85;27.20;;;;;;;19.04;53.00;96742.50;12582450;23;20057;-82
2021/12/30 13:23:36;;;;;;;34.35;12.90;;;;;;;19.06;51.54;96748.38;12585556;23;20518;-82
2021/12/30 13:28:59;;;;;;;34.90;11.38;;;;;;;19.02;50.04;96749.34;12575884;23;20050;-82
2021/12/30 14:14:14;;;;;;;10.60;4.60;;;;;;;19.32;49.17;96763.69;12133242;23;20026;-49
2021/12/30 14:19:39;;;;;;;7.40;3.95;;;;;;;19.33;49.34;96757.97;12752202;23;20013;-48
2021/12/30 14:24:59;;;;;;;10.38;4.15;;;;;;;19.33;49.63;96765.28;12752417;23;20013;-48
2021/12/30 14:30:19;;;;;;;9.93;3.67;;;;;;;19.33;49.33;96773.41;12731047;23;20116;-50
2021/12/30 14:35:38;;;;;;;6.40;3.15;;;;;;;19.32;49.33;96767.19;12731838;23;20021;-51
2021/12/30 14:41:08;;;;;;;4.15;2.13;;;;;;;19.32;48.82;96767.19;12731741;23;20021;-50
2021/12/30 14:46:28;;;;;;;15.07;2.50;;;;;;;19.33;49.07;96770.69;12731146;23;20082;-50
2021/12/30 14:51:48;;;;;;;20.17;2.67;;;;;;;19.33;49.47;96778.78;12730839;23;20793;-51
2021/12/30 14:57:08;;;;;;;5.28;2.30;;;;;;;19.33;49.68;96778.78;12731761;23;20041;-50
2021/12/30 15:02:31;;;;;;;2.88;1.70;;;;;;;19.33;49.58;96782.28;12731700;23;20021;-49
2021/12/30 15:07:51;;;;;;;3.30;1.88;;;;;;;19.36;48.88;96791.63;12749500;23;20013;-48
2021/12/30 15:13:11;;;;;;;3.55;2.10;;;;;;;19.35;49.11;96804.38;12711768;23;20509;-49
2021/12/30 15:18:32;;;;;;;4.05;1.88;;;;;;;19.34;49.06;96804.69;12613560;23;20025;-47
2021/12/30 15:23:51;;;;;;;5.88;1.63;;;;;;;19.35;49.37;96817.88;12632661;23;20025;-48
2021/12/30 15:29:12;;;;;;;5.32;2.58;;;;;;;19.34;49.88;96824.38;12608801;23;20023;-48
2021/12/30 15:34:32;;;;;;;16.02;5.90;;;;;;;19.36;51.29;96829.47;12632743;23;20088;-48
2021/12/30 15:39:52;;;;;;;19.50;6.80;;;;;;;19.38;52.00;96837.25;12612092;23;20025;-48
2021/12/30 15:45:12;;;;;;;16.98;6.10;;;;;;;19.39;52.19;96838.84;12612297;23;20018;-48
2021/12/30 15:50:32;;;;;;;45.17;19.73;;;;;;;19.37;52.86;96839.16;12610693;23;20085;-49
2021/12/30 15:55:52;;;;;;;64.40;26.08;;;;;;;19.40;53.58;96853.94;12612823;23;20332;-49
2021/12/30 16:01:12;;;;;;;72.35;29.40;;;;;;;19.38;54.43;96851.53;12612848;23;20040;-48
2021/12/30 16:06:32;;;;;;;67.50;27.15;;;;;;;19.39;55.09;96858.53;12612068;23;20018;-48
2021/12/30 16:11:51;;;;;;;59.45;21.42;;;;;;;19.40;55.28;96868.22;12607806;23;20014;-48
2021/12/30 16:17:11;;;;;;;43.72;17.42;;;;;;;19.39;55.18;96866.66;12611457;23;20026;-49
2021/12/30 16:22:30;;;;;;;56.15;20.15;;;;;;;19.39;56.02;96861.25;12611488;23;20018;-51
2021/12/30 16:27:50;;;;;;;62.45;20.00;;;;;;;19.40;56.59;96865.53;12608046;23;20446;-50
2021/12/30 16:33:12;;;;;;;67.38;21.70;;;;;;;19.41;57.15;96869.81;12607297;23;20379;-50
2021/12/30 16:38:32;;;;;;;58.88;20.45;;;;;;;19.43;57.06;96883.00;12606312;23;20404;-56
2021/12/30 16:43:52;;;;;;;50.03;18.35;;;;;;;19.42;56.53;96886.81;12607666;23;20014;-54
2021/12/30 16:49:16;;;;;;;44.53;15.45;;;;;;;19.43;56.17;96891.13;12608471;23;20022;-57
2021/12/30 16:54:36;;;;;;;40.40;14.90;;;;;;;19.42;55.57;96892.22;12607064;23;20065;-57
2021/12/30 16:59:56;;;;;;;36.03;13.60;;;;;;;19.40;55.50;96892.53;12607542;23;20402;-57
2021/12/30 17:05:18;;;;;;;36.85;13.00;;;;;;;19.41;55.11;96896.84;12607279;23;20078;-58
2021/12/30 17:10:38;;;;;;;36.03;12.68;;;;;;;19.40;54.95;96900.63;12625381;23;20014;-55
2021/12/30 17:15:58;;;;;;;35.60;13.55;;;;;;;19.40;55.10;96906.03;12607727;23;20036;-52
2021/12/30 17:21:18;;;;;;;46.17;16.73;;;;;;;19.40;55.40;96907.97;12608091;23;20097;-52
2021/12/30 17:26:40;;;;;;;45.17;15.65;;;;;;;19.41;56.75;96907.66;12608493;23;20023;-51
2021/12/30 17:31:59;;;;;;;43.15;15.13;;;;;;;19.42;57.47;96905.72;12609579;23;20320;-58
2021/12/30 17:37:19;;;;;;;38.53;13.55;;;;;;;19.42;57.17;96916.53;12628162;23;20442;-59
2021/12/30 17:42:41;;;;;;;32.28;12.90;;;;;;;19.42;57.06;96919.25;12608539;23;20018;-61
2021/12/30 17:48:01;;;;;;;30.50;12.23;;;;;;;19.41;57.01;96926.56;12630862;23;20025;-61
2021/12/30 17:53:21;;;;;;;30.95;11.73;;;;;;;19.40;57.08;96924.16;12609799;23;20019;-60
2021/12/30 17:58:40;;;;;;;30.48;11.27;;;;;;;19.40;57.37;96924.16;12611279;23;20524;-52
2021/12/30 18:04:00;;;;;;;27.38;10.40;;;;;;;19.41;57.46;96936.56;12610914;23;20505;-53
2021/12/30 18:09:20;;;;;;;30.80;11.70;;;;;;;19.40;56.72;96941.16;12610309;23;20076;-50
2021/12/30 18:14:39;;;;;;;24.77;9.60;;;;;;;19.40;57.00;96940.38;12610385;23;20080;-51
2021/12/30 18:19:59;;;;;;;29.67;9.90;;;;;;;19.39;57.30;96939.59;12610573;23;20022;-54
2021/12/30 18:25:19;;;;;;;28.58;10.45;;;;;;;19.39;57.25;96942.28;12606539;23;20018;-56
2021/12/30 18:30:40;;;;;;;26.30;10.18;;;;;;;19.39;57.10;96947.69;12630012;23;20026;-57
2021/12/30 18:36:01;;;;;;;24.08;9.95;;;;;;;19.39;57.02;96942.28;12628983;23;20019;-54
2021/12/30 18:41:20;;;;;;;23.00;9.13;;;;;;;19.40;56.97;96951.19;12630295;23;20022;-55
2021/12/30 18:46:40;;;;;;;21.65;9.10;;;;;;;19.42;56.77;96951.66;12603901;23;20573;-55
2021/12/30 18:51:59;;;;;;;22.15;9.07;;;;;;;19.42;56.75;96955.16;12609446;23;20021;-56
2021/12/30 18:57:19;;;;;;;19.13;8.65;;;;;;;19.43;56.91;96964.84;12609945;23;20025;-58
2021/12/30 19:02:38;;;;;;;20.25;8.95;;;;;;;19.46;56.65;96966.13;12629567;23;20014;-57
2021/12/30 19:07:59;;;;;;;18.30;8.25;;;;;;;19.48;57.09;96970.09;12609926;23;20018;-56
2021/12/30 19:13:19;;;;;;;20.23;8.43;;;;;;;19.50;56.60;96969.75;12609090;23;20022;-52
2021/12/30 19:18:39;;;;;;;17.42;8.05;;;;;;;19.52;56.92;96970.22;12608859;23;20097;-59
2021/12/30 19:23:59;;;;;;;20.23;8.73;;;;;;;19.54;56.51;96973.41;12610159;23;20018;-59
2021/12/30 19:29:19;;;;;;;15.93;7.63;;;;;;;19.58;56.38;96981.69;12610541;23;20018;-50
2021/12/30 19:34:39;;;;;;;19.13;7.90;;;;;;;19.59;56.18;96975.16;12610024;23;20522;-51
2021/12/30 19:39:59;;;;;;;18.20;7.20;;;;;;;19.61;56.20;96978.34;12610429;23;20018;-53
2021/12/30 19:45:19;;;;;;;20.23;7.78;;;;;;;19.64;55.96;96977.69;12629454;23;20014;-49
2021/12/30 19:50:40;;;;;;;21.42;7.93;;;;;;;19.65;56.04;96982.00;12609437;23;20455;-49
2021/12/30 19:56:00;;;;;;;17.55;7.53;;;;;;;19.68;55.70;96990.28;12610319;23;20093;-50
2021/12/30 20:01:19;;;;;;;14.60;6.65;;;;;;;-146.19;100.00;65364.44;12609596;23;20081;-61
2021/12/30 20:06:39;;;;;;;13.65;7.15;;;;;;;-146.19;100.00;65364.44;12608192;23;20338;-59
2021/12/30 20:11:59;;;;;;;17.85;7.15;;;;;;;-146.19;100.00;65364.44;12608042;23;20018;-61
2021/12/30 20:17:19;;;;;;;16.08;7.43;;;;;;;-146.19;100.00;65364.44;12608027;23;20026;-61
2021/12/30 20:22:40;;;;;;;14.05;7.03;;;;;;;-146.19;100.00;65364.44;12627507;23;20328;-59
2021/12/30 20:28:00;;;;;;;15.48;7.13;;;;;;;-146.19;100.00;65364.44;12607709;23;20086;-58
2021/12/30 20:33:20;;;;;;;14.93;6.72;;;;;;;19.79;55.35;96985.34;12607726;23;20106;-51
2021/12/30 20:38:39;;;;;;;15.10;6.47;;;;;;;19.80;55.58;96986.13;12608604;23;20042;-49
2021/12/30 20:43:59;;;;;;;17.30;6.60;;;;;;;19.80;55.56;96995.06;12608752;23;20018;-49
2021/12/30 20:49:20;;;;;;;13.85;6.45;;;;;;;19.81;55.49;97015.53;12608194;23;20076;-50
2021/12/30 20:54:40;;;;;;;11.77;5.88;;;;;;;19.82;55.40;97014.44;12609169;23;20018;-50
2021/12/30 20:59:59;;;;;;;12.00;6.70;;;;;;;19.82;55.40;97011.75;12608659;23;20019;-50
2021/12/30 21:05:19;;;;;;;14.65;6.72;;;;;;;19.81;55.37;97015.53;12606675;23;20451;-49
2021/12/30 21:10:41;;;;;;;12.93;6.65;;;;;;;19.82;55.40;97008.25;12624727;23;20030;-49
2021/12/30 21:16:01;;;;;;;15.68;6.65;;;;;;;19.82;55.21;97014.44;12604272;23;20311;-49
2021/12/30 21:21:22;;;;;;;13.80;6.28;;;;;;;19.82;55.32;97017.16;12584458;23;20030;-49
2021/12/30 21:26:42;;;;;;;12.85;6.45;;;;;;;19.81;55.40;97018.25;12606198;23;20691;-49
2021/12/30 21:32:01;;;;;;;13.98;6.43;;;;;;;19.83;55.92;97026.84;12606244;23;20699;-49
2021/12/30 21:37:21;;;;;;;12.18;6.07;;;;;;;19.84;56.03;97024.94;12603334;23;20023;-50
2021/12/30 21:42:41;;;;;;;19.13;7.03;;;;;;;19.85;55.83;97018.41;12603786;23;20603;-50
2021/12/30 21:48:01;;;;;;;15.25;6.55;;;;;;;19.85;55.92;97027.31;12606795;23;20026;-51
2021/12/30 21:53:21;;;;;;;12.10;6.50;;;;;;;19.85;56.21;97024.59;12625792;23;20032;-50
2021/12/30 21:58:42;;;;;;;12.55;5.78;;;;;;;19.84;56.36;97033.84;12605455;23;20026;-52
2021/12/30 22:04:02;;;;;;;14.07;6.53;;;;;;;19.84;56.35;97036.53;12606776;23;20639;-50
2021/12/30 22:09:26;;;;;;;12.38;5.85;;;;;;;19.83;56.22;97043.06;12606508;23;20079;-49
2021/12/30 22:14:45;;;;;;;11.10;5.82;;;;;;;19.84;56.16;97033.84;12606543;23;20033;-50
2021/12/30 22:20:06;;;;;;;11.45;6.30;;;;;;;19.82;56.18;97038.78;12609085;23;20018;-50
2021/12/30 22:25:28;;;;;;;10.65;5.15;;;;;;;19.83;55.85;97036.84;12609004;23;20070;-51
2021/12/30 22:30:48;;;;;;;9.93;5.45;;;;;;;19.82;56.02;97036.06;12607371;23;20023;-49
2021/12/30 22:36:08;;;;;;;9.63;5.28;;;;;;;19.81;55.80;97042.56;12608608;23;20025;-51
2021/12/30 22:41:28;;;;;;;9.93;5.25;;;;;;;19.80;55.84;97051.81;12608907;23;20080;-50
2021/12/30 22:46:48;;;;;;;9.68;5.03;;;;;;;19.81;55.81;97058.78;12609231;23;20045;-49
2021/12/30 22:52:09;;;;;;;11.23;4.90;;;;;;;19.79;55.73;97039.41;12608652;23;20026;-51
2021/12/30 22:57:29;;;;;;;9.10;4.75;;;;;;;19.80;55.77;97042.91;12628786;23;20014;-50
2021/12/30 23:02:48;;;;;;;8.15;4.65;;;;;;;19.79;55.58;97052.13;12628447;23;20018;-51
2021/12/30 23:08:08;;;;;;;9.35;5.00;;;;;;;19.78;55.75;97059.47;12628133;23;20014;-50
2021/12/30 23:13:28;;;;;;;8.13;4.53;;;;;;;19.76;55.69;97050.88;12608612;23;20098;-51
2021/12/30 23:18:51;;;;;;;8.30;4.40;;;;;;;19.76;55.81;97050.88;12609218;23;20101;-50
2021/12/30 23:24:12;;;;;;;8.70;4.65;;;;;;;19.76;55.69;97056.28;12608508;23;20018;-49
2021/12/30 23:29:32;;;;;;;9.93;5.05;;;;;;;19.75;55.63;97068.19;12607287;23;20019;-49
2021/12/30 23:34:51;;;;;;;8.63;4.65;;;;;;;19.75;55.60;97070.91;12629317;23;20070;-51
2021/12/30 23:40:12;;;;;;;8.00;4.25;;;;;;;19.73;55.48;97067.72;12609852;23;20073;-49
2021/12/30 23:45:32;;;;;;;9.10;4.70;;;;;;;19.72;55.47;97083.16;12610393;23;20621;-50
2021/12/30 23:50:52;;;;;;;7.13;4.35;;;;;;;19.71;55.50;97086.13;12609669;23;20029;-50
2021/12/30 23:56:11;;;;;;;6.93;4.40;;;;;;;19.70;55.33;97089.97;12629782;23;20045;-52
